sensor_id;sensor_type;location;lat;lon;timestamp;P1;durP1;ratioP1;P2;durP2;ratioP2
10920;SDS011;5513;50.580;8.818;2023-05-07T00:01:20;3.10;;;2.50;;
10920;SDS011;5513;50.580;8.818;2023-05-07T00:03:50;3.27;;;2.30;;
10920;SDS011;5513;50.580;8.818;2023-05-07T00:06:18;2.70;;;2.10;;
10920;SDS011;5513;50.580;8.818;2023-05-07T00:08:46;2.83;;;2.00;;
10920;SDS011;5513;50.580;8.818;2023-05-07T00:11:14;2.83;;;2.30;;
10920;SDS011;5513;50.580;8.818;2023-05-07T00:13:43;3.13;;;2.10;;
10920;SDS011;5513;50.580;8.818;2023-05-07T00:16:11;4.17;;;2.30;;
10920;SDS011;5513;50.580;8.818;2023-05-07T00:18:39;3.00;;;2.20;;
10920;SDS011;5513;50.580;8.818;2023-05-07T00:21:09;3.97;;;2.30;;
10920;SDS011;5513;50.580;8.818;2023-05-07T00:23:38;3.47;;;2.37;;
10920;SDS011;5513;50.580;8.818;2023-05-07T00:26:06;4.13;;;2.60;;
10920;SDS011;5513;50.580;8.818;2023-05-07T00:28:35;2.63;;;2.30;;
10920;SDS011;5513;50.580;8.818;2023-05-07T00:31:03;3.03;;;2.40;;
10920;SDS011;5513;50.580;8.818;2023-05-07T00:33:31;4.33;;;2.50;;
10920;SDS011;5513;50.580;8.818;2023-05-07T00:35:59;5.37;;;2.40;;
10920;SDS011;5513;50.580;8.818;2023-05-07T00:38:30;3.47;;;2.80;;
10920;SDS011;5513;50.580;8.818;2023-05-07T00:40:58;3.17;;;2.30;;
10920;SDS011;5513;50.580;8.818;2023-05-07T00:43:26;3.43;;;2.63;;
10920;SDS011;5513;50.580;8.818;2023-05-07T00:45:56;4.07;;;2.43;;
10920;SDS011;5513;50.580;8.818;2023-05-07T00:48:25;4.00;;;2.50;;
10920;SDS011;5513;50.580;8.818;2023-05-07T00:50:54;5.07;;;2.40;;
10920;SDS011;5513;50.580;8.818;2023-05-07T00:53:24;3.60;;;2.13;;
10920;SDS011;5513;50.580;8.818;2023-05-07T00:55:54;3.97;;;2.53;;
10920;SDS011;5513;50.580;8.818;2023-05-07T00:58:23;5.30;;;2.63;;
10920;SDS011;5513;50.580;8.818;2023-05-07T01:00:51;4.43;;;2.53;;
10920;SDS011;5513;50.580;8.818;2023-05-07T01:03:20;5.77;;;3.13;;
10920;SDS011;5513;50.580;8.818;2023-05-07T01:05:49;3.63;;;3.07;;
10920;SDS011;5513;50.580;8.818;2023-05-07T01:08:19;4.47;;;2.70;;
10920;SDS011;5513;50.580;8.818;2023-05-07T01:10:53;3.20;;;2.60;;
10920;SDS011;5513;50.580;8.818;2023-05-07T01:13:22;2.70;;;2.47;;
10920;SDS011;5513;50.580;8.818;2023-05-07T01:15:52;3.67;;;2.53;;
10920;SDS011;5513;50.580;8.818;2023-05-07T01:18:20;2.67;;;2.40;;
10920;SDS011;5513;50.580;8.818;2023-05-07T01:20:49;5.30;;;2.83;;
10920;SDS011;5513;50.580;8.818;2023-05-07T01:23:19;4.63;;;2.63;;
10920;SDS011;5513;50.580;8.818;2023-05-07T01:25:51;4.40;;;2.60;;
10920;SDS011;5513;50.580;8.818;2023-05-07T01:28:19;4.07;;;2.90;;
10920;SDS011;5513;50.580;8.818;2023-05-07T01:30:49;3.97;;;2.53;;
10920;SDS011;5513;50.580;8.818;2023-05-07T01:33:21;4.87;;;3.03;;
10920;SDS011;5513;50.580;8.818;2023-05-07T01:35:51;3.43;;;2.77;;
10920;SDS011;5513;50.580;8.818;2023-05-07T01:38:22;5.10;;;3.10;;
10920;SDS011;5513;50.580;8.818;2023-05-07T01:40:51;4.70;;;2.80;;
10920;SDS011;5513;50.580;8.818;2023-05-07T01:43:21;4.50;;;3.00;;
10920;SDS011;5513;50.580;8.818;2023-05-07T01:45:49;5.57;;;2.87;;
10920;SDS011;5513;50.580;8.818;2023-05-07T01:48:19;6.83;;;3.20;;
10920;SDS011;5513;50.580;8.818;2023-05-07T01:50:48;5.70;;;3.33;;
10920;SDS011;5513;50.580;8.818;2023-05-07T01:53:17;3.60;;;3.00;;
10920;SDS011;5513;50.580;8.818;2023-05-07T01:55:47;5.53;;;3.20;;
10920;SDS011;5513;50.580;8.818;2023-05-07T01:58:15;5.83;;;3.10;;
10920;SDS011;5513;50.580;8.818;2023-05-07T02:00:43;3.47;;;3.10;;
10920;SDS011;5513;50.580;8.818;2023-05-07T02:03:12;3.53;;;3.20;;
10920;SDS011;5513;50.580;8.818;2023-05-07T02:05:40;4.37;;;2.90;;
10920;SDS011;5513;50.580;8.818;2023-05-07T02:08:08;3.63;;;3.10;;
10920;SDS011;5513;50.580;8.818;2023-05-07T02:10:36;4.07;;;3.20;;
10920;SDS011;5513;50.580;8.818;2023-05-07T02:13:07;4.20;;;3.20;;
10920;SDS011;5513;50.580;8.818;2023-05-07T02:15:35;4.57;;;3.57;;
10920;SDS011;5513;50.580;8.818;2023-05-07T02:18:04;4.40;;;3.20;;
10920;SDS011;5513;50.580;8.818;2023-05-07T02:20:35;4.23;;;3.30;;
10920;SDS011;5513;50.580;8.818;2023-05-07T02:23:03;4.87;;;3.33;;
10920;SDS011;5513;50.580;8.818;2023-05-07T02:25:32;4.57;;;3.30;;
10920;SDS011;5513;50.580;8.818;2023-05-07T02:28:00;4.30;;;3.27;;
10920;SDS011;5513;50.580;8.818;2023-05-07T02:30:30;4.93;;;3.63;;
10920;SDS011;5513;50.580;8.818;2023-05-07T02:32:58;4.33;;;3.50;;
10920;SDS011;5513;50.580;8.818;2023-05-07T02:35:26;3.87;;;3.37;;
10920;SDS011;5513;50.580;8.818;2023-05-07T02:37:55;4.80;;;3.53;;
10920;SDS011;5513;50.580;8.818;2023-05-07T02:40:23;5.17;;;3.27;;
10920;SDS011;5513;50.580;8.818;2023-05-07T02:42:51;3.93;;;3.20;;
10920;SDS011;5513;50.580;8.818;2023-05-07T02:45:19;4.53;;;3.60;;
10920;SDS011;5513;50.580;8.818;2023-05-07T02:47:50;4.13;;;3.40;;
10920;SDS011;5513;50.580;8.818;2023-05-07T02:50:19;3.97;;;3.30;;
10920;SDS011;5513;50.580;8.818;2023-05-07T02:52:48;6.23;;;3.50;;
10920;SDS011;5513;50.580;8.818;2023-05-07T02:55:18;4.43;;;3.77;;
10920;SDS011;5513;50.580;8.818;2023-05-07T02:57:47;3.93;;;3.50;;
10920;SDS011;5513;50.580;8.818;2023-05-07T03:00:16;4.70;;;3.80;;
10920;SDS011;5513;50.580;8.818;2023-05-07T03:02:45;5.50;;;4.10;;
10920;SDS011;5513;50.580;8.818;2023-05-07T03:05:15;7.10;;;4.10;;
10920;SDS011;5513;50.580;8.818;2023-05-07T03:07:46;5.20;;;3.80;;
10920;SDS011;5513;50.580;8.818;2023-05-07T03:10:14;4.23;;;3.83;;
10920;SDS011;5513;50.580;8.818;2023-05-07T03:12:42;4.67;;;3.93;;
10920;SDS011;5513;50.580;8.818;2023-05-07T03:15:11;4.77;;;3.93;;
10920;SDS011;5513;50.580;8.818;2023-05-07T03:17:40;4.73;;;3.47;;
10920;SDS011;5513;50.580;8.818;2023-05-07T03:20:09;4.63;;;3.97;;
10920;SDS011;5513;50.580;8.818;2023-05-07T03:22:40;7.73;;;4.10;;
10920;SDS011;5513;50.580;8.818;2023-05-07T03:25:09;4.90;;;3.87;;
10920;SDS011;5513;50.580;8.818;2023-05-07T03:27:40;5.63;;;3.97;;
10920;SDS011;5513;50.580;8.818;2023-05-07T03:30:09;5.57;;;4.43;;
10920;SDS011;5513;50.580;8.818;2023-05-07T03:32:39;5.23;;;4.10;;
10920;SDS011;5513;50.580;8.818;2023-05-07T03:35:08;5.63;;;4.23;;
10920;SDS011;5513;50.580;8.818;2023-05-07T03:37:37;4.80;;;4.00;;
10920;SDS011;5513;50.580;8.818;2023-05-07T03:40:08;6.67;;;4.67;;
10920;SDS011;5513;50.580;8.818;2023-05-07T03:42:38;5.23;;;4.73;;
10920;SDS011;5513;50.580;8.818;2023-05-07T03:45:06;6.13;;;4.73;;
10920;SDS011;5513;50.580;8.818;2023-05-07T03:47:36;7.23;;;5.10;;
10920;SDS011;5513;50.580;8.818;2023-05-07T03:50:04;5.70;;;5.13;;
10920;SDS011;5513;50.580;8.818;2023-05-07T03:52:33;6.50;;;5.90;;
10920;SDS011;5513;50.580;8.818;2023-05-07T03:55:02;6.77;;;6.07;;
10920;SDS011;5513;50.580;8.818;2023-05-07T03:57:32;6.23;;;5.50;;
10920;SDS011;5513;50.580;8.818;2023-05-07T04:00:00;8.07;;;6.30;;
10920;SDS011;5513;50.580;8.818;2023-05-07T04:02:29;6.77;;;6.07;;
10920;SDS011;5513;50.580;8.818;2023-05-07T04:04:57;7.37;;;6.27;;
10920;SDS011;5513;50.580;8.818;2023-05-07T04:07:26;8.23;;;6.00;;
10920;SDS011;5513;50.580;8.818;2023-05-07T04:09:54;7.77;;;6.07;;
10920;SDS011;5513;50.580;8.818;2023-05-07T04:12:22;8.13;;;6.07;;
10920;SDS011;5513;50.580;8.818;2023-05-07T04:14:52;9.23;;;7.27;;
10920;SDS011;5513;50.580;8.818;2023-05-07T04:17:21;8.73;;;7.17;;
10920;SDS011;5513;50.580;8.818;2023-05-07T04:19:49;9.93;;;7.70;;
10920;SDS011;5513;50.580;8.818;2023-05-07T04:22:19;11.17;;;8.23;;
10920;SDS011;5513;50.580;8.818;2023-05-07T04:24:47;10.87;;;8.13;;
10920;SDS011;5513;50.580;8.818;2023-05-07T04:27:16;9.73;;;8.50;;
10920;SDS011;5513;50.580;8.818;2023-05-07T04:29:44;10.53;;;9.00;;
10920;SDS011;5513;50.580;8.818;2023-05-07T04:32:15;12.53;;;8.53;;
10920;SDS011;5513;50.580;8.818;2023-05-07T04:34:44;12.50;;;9.77;;
10920;SDS011;5513;50.580;8.818;2023-05-07T04:37:12;11.93;;;9.57;;
10920;SDS011;5513;50.580;8.818;2023-05-07T04:39:40;11.60;;;9.73;;
10920;SDS011;5513;50.580;8.818;2023-05-07T04:42:09;11.37;;;10.27;;
10920;SDS011;5513;50.580;8.818;2023-05-07T04:44:37;12.27;;;10.30;;
10920;SDS011;5513;50.580;8.818;2023-05-07T04:47:05;11.63;;;10.40;;
10920;SDS011;5513;50.580;8.818;2023-05-07T04:49:35;12.00;;;9.77;;
10920;SDS011;5513;50.580;8.818;2023-05-07T04:52:03;13.23;;;11.33;;
10920;SDS011;5513;50.580;8.818;2023-05-07T04:54:32;15.63;;;12.90;;
10920;SDS011;5513;50.580;8.818;2023-05-07T04:57:00;13.40;;;10.97;;
10920;SDS011;5513;50.580;8.818;2023-05-07T04:59:28;13.63;;;11.50;;
10920;SDS011;5513;50.580;8.818;2023-05-07T05:01:56;12.47;;;11.03;;
10920;SDS011;5513;50.580;8.818;2023-05-07T05:04:25;12.63;;;11.33;;
10920;SDS011;5513;50.580;8.818;2023-05-07T05:06:55;13.63;;;11.63;;
10920;SDS011;5513;50.580;8.818;2023-05-07T05:09:23;14.10;;;12.47;;
10920;SDS011;5513;50.580;8.818;2023-05-07T05:11:52;13.30;;;12.00;;
10920;SDS011;5513;50.580;8.818;2023-05-07T05:14:20;16.03;;;12.53;;
10920;SDS011;5513;50.580;8.818;2023-05-07T05:16:49;14.50;;;12.37;;
10920;SDS011;5513;50.580;8.818;2023-05-07T05:19:17;15.23;;;13.13;;
10920;SDS011;5513;50.580;8.818;2023-05-07T05:21:45;18.33;;;14.30;;
10920;SDS011;5513;50.580;8.818;2023-05-07T05:24:16;14.77;;;13.27;;
10920;SDS011;5513;50.580;8.818;2023-05-07T05:26:44;15.77;;;14.03;;
10920;SDS011;5513;50.580;8.818;2023-05-07T05:29:12;15.80;;;14.20;;
10920;SDS011;5513;50.580;8.818;2023-05-07T05:31:41;15.70;;;13.73;;
10920;SDS011;5513;50.580;8.818;2023-05-07T05:34:09;15.30;;;13.70;;
10920;SDS011;5513;50.580;8.818;2023-05-07T05:36:38;16.17;;;14.50;;
10920;SDS011;5513;50.580;8.818;2023-05-07T05:39:06;18.03;;;15.00;;
10920;SDS011;5513;50.580;8.818;2023-05-07T05:41:36;14.97;;;13.37;;
10920;SDS011;5513;50.580;8.818;2023-05-07T05:44:05;15.83;;;14.03;;
10920;SDS011;5513;50.580;8.818;2023-05-07T05:46:33;17.73;;;15.67;;
10920;SDS011;5513;50.580;8.818;2023-05-07T05:49:05;17.30;;;15.50;;
10920;SDS011;5513;50.580;8.818;2023-05-07T05:51:33;16.70;;;14.87;;
10920;SDS011;5513;50.580;8.818;2023-05-07T05:54:02;19.70;;;15.57;;
10920;SDS011;5513;50.580;8.818;2023-05-07T05:56:31;19.70;;;16.93;;
10920;SDS011;5513;50.580;8.818;2023-05-07T05:59:00;17.90;;;15.67;;
10920;SDS011;5513;50.580;8.818;2023-05-07T06:01:29;18.80;;;16.80;;
10920;SDS011;5513;50.580;8.818;2023-05-07T06:03:57;19.73;;;17.10;;
10920;SDS011;5513;50.580;8.818;2023-05-07T06:06:26;18.40;;;16.50;;
10920;SDS011;5513;50.580;8.818;2023-05-07T06:08:54;18.93;;;16.80;;
10920;SDS011;5513;50.580;8.818;2023-05-07T06:11:22;22.80;;;17.27;;
10920;SDS011;5513;50.580;8.818;2023-05-07T06:13:51;20.83;;;17.10;;
10920;SDS011;5513;50.580;8.818;2023-05-07T06:16:21;23.33;;;19.30;;
10920;SDS011;5513;50.580;8.818;2023-05-07T06:18:50;24.03;;;19.73;;
10920;SDS011;5513;50.580;8.818;2023-05-07T06:21:18;21.83;;;19.33;;
10920;SDS011;5513;50.580;8.818;2023-05-07T06:23:46;21.90;;;18.70;;
10920;SDS011;5513;50.580;8.818;2023-05-07T06:26:14;21.17;;;18.87;;
10920;SDS011;5513;50.580;8.818;2023-05-07T06:28:43;22.30;;;18.80;;
10920;SDS011;5513;50.580;8.818;2023-05-07T06:31:12;22.50;;;18.23;;
10920;SDS011;5513;50.580;8.818;2023-05-07T06:33:44;22.73;;;19.73;;
10920;SDS011;5513;50.580;8.818;2023-05-07T06:36:12;23.30;;;19.60;;
10920;SDS011;5513;50.580;8.818;2023-05-07T06:38:41;22.33;;;19.53;;
10920;SDS011;5513;50.580;8.818;2023-05-07T06:41:10;23.50;;;18.63;;
10920;SDS011;5513;50.580;8.818;2023-05-07T06:43:39;22.87;;;19.13;;
10920;SDS011;5513;50.580;8.818;2023-05-07T06:46:07;22.60;;;18.97;;
10920;SDS011;5513;50.580;8.818;2023-05-07T06:48:35;22.23;;;18.37;;
10920;SDS011;5513;50.580;8.818;2023-05-07T06:51:05;23.37;;;18.77;;
10920;SDS011;5513;50.580;8.818;2023-05-07T06:53:35;21.83;;;18.30;;
10920;SDS011;5513;50.580;8.818;2023-05-07T06:56:05;23.67;;;20.20;;
10920;SDS011;5513;50.580;8.818;2023-05-07T06:58:34;22.27;;;19.00;;
10920;SDS011;5513;50.580;8.818;2023-05-07T07:01:03;23.37;;;19.10;;
10920;SDS011;5513;50.580;8.818;2023-05-07T07:03:32;23.57;;;19.70;;
10920;SDS011;5513;50.580;8.818;2023-05-07T07:06:00;22.80;;;19.17;;
10920;SDS011;5513;50.580;8.818;2023-05-07T07:08:31;22.47;;;18.30;;
10920;SDS011;5513;50.580;8.818;2023-05-07T07:10:59;20.77;;;18.57;;
10920;SDS011;5513;50.580;8.818;2023-05-07T07:13:28;23.00;;;19.23;;
10920;SDS011;5513;50.580;8.818;2023-05-07T07:15:56;22.40;;;18.07;;
10920;SDS011;5513;50.580;8.818;2023-05-07T07:18:24;20.63;;;18.07;;
10920;SDS011;5513;50.580;8.818;2023-05-07T07:20:53;21.00;;;17.63;;
10920;SDS011;5513;50.580;8.818;2023-05-07T07:23:21;22.80;;;17.30;;
10920;SDS011;5513;50.580;8.818;2023-05-07T07:25:54;20.83;;;17.20;;
10920;SDS011;5513;50.580;8.818;2023-05-07T07:28:23;19.67;;;16.80;;
10920;SDS011;5513;50.580;8.818;2023-05-07T07:30:52;19.83;;;17.43;;
10920;SDS011;5513;50.580;8.818;2023-05-07T07:33:21;24.87;;;16.53;;
10920;SDS011;5513;50.580;8.818;2023-05-07T07:35:49;21.87;;;17.07;;
10920;SDS011;5513;50.580;8.818;2023-05-07T07:38:17;21.10;;;17.33;;
10920;SDS011;5513;50.580;8.818;2023-05-07T07:40:47;21.43;;;16.63;;
10920;SDS011;5513;50.580;8.818;2023-05-07T07:43:17;19.07;;;16.83;;
10920;SDS011;5513;50.580;8.818;2023-05-07T07:45:45;19.67;;;16.33;;
10920;SDS011;5513;50.580;8.818;2023-05-07T07:48:13;17.97;;;16.07;;
10920;SDS011;5513;50.580;8.818;2023-05-07T07:50:42;20.10;;;16.07;;
10920;SDS011;5513;50.580;8.818;2023-05-07T07:53:11;20.93;;;17.30;;
10920;SDS011;5513;50.580;8.818;2023-05-07T07:55:39;21.30;;;16.13;;
10920;SDS011;5513;50.580;8.818;2023-05-07T07:58:08;19.57;;;16.13;;
10920;SDS011;5513;50.580;8.818;2023-05-07T08:00:37;19.83;;;16.83;;
10920;SDS011;5513;50.580;8.818;2023-05-07T08:03:08;20.43;;;17.23;;
10920;SDS011;5513;50.580;8.818;2023-05-07T08:05:38;18.00;;;16.03;;
10920;SDS011;5513;50.580;8.818;2023-05-07T08:08:06;20.57;;;16.57;;
10920;SDS011;5513;50.580;8.818;2023-05-07T08:10:34;16.87;;;15.03;;
10920;SDS011;5513;50.580;8.818;2023-05-07T08:13:04;17.70;;;15.80;;
10920;SDS011;5513;50.580;8.818;2023-05-07T08:15:33;19.67;;;16.00;;
10920;SDS011;5513;50.580;8.818;2023-05-07T08:18:03;15.87;;;14.27;;
10920;SDS011;5513;50.580;8.818;2023-05-07T08:20:32;20.17;;;16.30;;
10920;SDS011;5513;50.580;8.818;2023-05-07T08:23:03;19.40;;;15.80;;
10920;SDS011;5513;50.580;8.818;2023-05-07T08:25:32;20.60;;;16.83;;
10920;SDS011;5513;50.580;8.818;2023-05-07T08:28:01;16.93;;;14.87;;
10920;SDS011;5513;50.580;8.818;2023-05-07T08:30:29;17.53;;;14.17;;
10920;SDS011;5513;50.580;8.818;2023-05-07T08:32:57;16.57;;;14.13;;
10920;SDS011;5513;50.580;8.818;2023-05-07T08:35:27;18.27;;;16.37;;
10920;SDS011;5513;50.580;8.818;2023-05-07T08:37:56;16.80;;;14.73;;
10920;SDS011;5513;50.580;8.818;2023-05-07T08:40:24;16.60;;;14.90;;
10920;SDS011;5513;50.580;8.818;2023-05-07T08:42:53;15.77;;;13.17;;
10920;SDS011;5513;50.580;8.818;2023-05-07T08:45:23;14.40;;;13.00;;
10920;SDS011;5513;50.580;8.818;2023-05-07T08:47:52;15.13;;;13.53;;
10920;SDS011;5513;50.580;8.818;2023-05-07T08:50:26;14.73;;;13.13;;
10920;SDS011;5513;50.580;8.818;2023-05-07T08:52:56;15.37;;;13.37;;
10920;SDS011;5513;50.580;8.818;2023-05-07T08:55:25;14.77;;;12.30;;
10920;SDS011;5513;50.580;8.818;2023-05-07T08:57:53;15.77;;;12.03;;
10920;SDS011;5513;50.580;8.818;2023-05-07T09:00:22;15.33;;;12.43;;
10920;SDS011;5513;50.580;8.818;2023-05-07T09:02:50;13.67;;;12.10;;
10920;SDS011;5513;50.580;8.818;2023-05-07T09:05:20;13.90;;;12.50;;
10920;SDS011;5513;50.580;8.818;2023-05-07T09:07:50;13.60;;;12.13;;
10920;SDS011;5513;50.580;8.818;2023-05-07T09:10:20;12.90;;;11.23;;
10920;SDS011;5513;50.580;8.818;2023-05-07T09:12:48;13.43;;;11.77;;
10920;SDS011;5513;50.580;8.818;2023-05-07T09:15:17;14.53;;;11.60;;
10920;SDS011;5513;50.580;8.818;2023-05-07T09:17:45;14.07;;;11.13;;
10920;SDS011;5513;50.580;8.818;2023-05-07T09:20:14;13.63;;;11.90;;
10920;SDS011;5513;50.580;8.818;2023-05-07T09:22:44;14.00;;;12.07;;
10920;SDS011;5513;50.580;8.818;2023-05-07T09:25:13;13.73;;;10.97;;
10920;SDS011;5513;50.580;8.818;2023-05-07T09:27:41;12.67;;;10.70;;
10920;SDS011;5513;50.580;8.818;2023-05-07T09:30:11;12.47;;;11.17;;
10920;SDS011;5513;50.580;8.818;2023-05-07T09:32:40;12.63;;;10.73;;
10920;SDS011;5513;50.580;8.818;2023-05-07T09:35:14;11.80;;;10.10;;
10920;SDS011;5513;50.580;8.818;2023-05-07T09:37:43;12.00;;;10.70;;
10920;SDS011;5513;50.580;8.818;2023-05-07T09:40:21;10.80;;;9.70;;
10920;SDS011;5513;50.580;8.818;2023-05-07T09:42:50;13.50;;;11.20;;
10920;SDS011;5513;50.580;8.818;2023-05-07T09:45:22;12.30;;;10.13;;
10920;SDS011;5513;50.580;8.818;2023-05-07T09:47:53;11.80;;;10.60;;
10920;SDS011;5513;50.580;8.818;2023-05-07T09:50:25;15.20;;;11.60;;
10920;SDS011;5513;50.580;8.818;2023-05-07T09:52:55;13.13;;;10.97;;
10920;SDS011;5513;50.580;8.818;2023-05-07T09:55:26;11.57;;;10.37;;
10920;SDS011;5513;50.580;8.818;2023-05-07T09:57:54;14.97;;;11.10;;
10920;SDS011;5513;50.580;8.818;2023-05-07T10:00:23;13.13;;;10.37;;
10920;SDS011;5513;50.580;8.818;2023-05-07T10:02:53;14.87;;;11.17;;
10920;SDS011;5513;50.580;8.818;2023-05-07T10:05:25;12.30;;;11.00;;
10920;SDS011;5513;50.580;8.818;2023-05-07T10:07:54;11.80;;;10.37;;
10920;SDS011;5513;50.580;8.818;2023-05-07T10:10:24;16.27;;;10.63;;
10920;SDS011;5513;50.580;8.818;2023-05-07T10:12:55;9.97;;;8.47;;
10920;SDS011;5513;50.580;8.818;2023-05-07T10:15:25;10.27;;;8.13;;
10920;SDS011;5513;50.580;8.818;2023-05-07T10:17:54;11.90;;;8.63;;
10920;SDS011;5513;50.580;8.818;2023-05-07T10:20:23;12.05;;;9.30;;
10920;SDS011;5513;50.580;8.818;2023-05-07T10:22:54;9.77;;;8.70;;
10920;SDS011;5513;50.580;8.818;2023-05-07T10:25:28;10.45;;;9.27;;
10920;SDS011;5513;50.580;8.818;2023-05-07T10:28:00;11.25;;;8.95;;
10920;SDS011;5513;50.580;8.818;2023-05-07T10:30:34;11.23;;;8.52;;
10920;SDS011;5513;50.580;8.818;2023-05-07T10:33:16;11.25;;;8.95;;
10920;SDS011;5513;50.580;8.818;2023-05-07T10:35:49;10.07;;;9.07;;
10920;SDS011;5513;50.580;8.818;2023-05-07T10:38:17;10.23;;;8.57;;
10920;SDS011;5513;50.580;8.818;2023-05-07T10:40:48;9.95;;;8.30;;
10920;SDS011;5513;50.580;8.818;2023-05-07T10:43:18;10.43;;;7.85;;
10920;SDS011;5513;50.580;8.818;2023-05-07T10:51:38;9.13;;;7.65;;
10920;SDS011;5513;50.580;8.818;2023-05-07T10:54:19;8.95;;;8.05;;
10920;SDS011;5513;50.580;8.818;2023-05-07T10:56:50;9.13;;;7.78;;
10920;SDS011;5513;50.580;8.818;2023-05-07T10:59:34;7.28;;;6.57;;
10920;SDS011;5513;50.580;8.818;2023-05-07T11:02:08;9.32;;;8.38;;
10920;SDS011;5513;50.580;8.818;2023-05-07T11:04:42;8.85;;;7.85;;
10920;SDS011;5513;50.580;8.818;2023-05-07T11:07:16;8.95;;;8.05;;
10920;SDS011;5513;50.580;8.818;2023-05-07T11:10:02;10.52;;;8.20;;
10920;SDS011;5513;50.580;8.818;2023-05-07T11:15:34;7.43;;;6.72;;
10920;SDS011;5513;50.580;8.818;2023-05-07T11:18:10;9.32;;;7.63;;
10920;SDS011;5513;50.580;8.818;2023-05-07T11:20:46;9.07;;;7.50;;
10920;SDS011;5513;50.580;8.818;2023-05-07T11:26:17;10.30;;;6.80;;
10920;SDS011;5513;50.580;8.818;2023-05-07T11:28:48;7.90;;;7.10;;
10920;SDS011;5513;50.580;8.818;2023-05-07T11:31:20;10.40;;;6.80;;
10920;SDS011;5513;50.580;8.818;2023-05-07T11:33:50;7.43;;;6.68;;
10920;SDS011;5513;50.580;8.818;2023-05-07T11:36:19;7.65;;;6.32;;
10920;SDS011;5513;50.580;8.818;2023-05-07T11:38:48;10.00;;;7.78;;
10920;SDS011;5513;50.580;8.818;2023-05-07T11:41:17;9.00;;;7.25;;
10920;SDS011;5513;50.580;8.818;2023-05-07T11:43:55;8.07;;;6.47;;
10920;SDS011;5513;50.580;8.818;2023-05-07T11:46:24;10.55;;;7.38;;
10920;SDS011;5513;50.580;8.818;2023-05-07T11:48:53;9.48;;;7.45;;
10920;SDS011;5513;50.580;8.818;2023-05-07T11:51:21;8.30;;;6.80;;
10920;SDS011;5513;50.580;8.818;2023-05-07T11:53:52;9.55;;;7.15;;
10920;SDS011;5513;50.580;8.818;2023-05-07T11:56:21;7.43;;;6.65;;
10920;SDS011;5513;50.580;8.818;2023-05-07T11:58:49;8.13;;;7.32;;
10920;SDS011;5513;50.580;8.818;2023-05-07T12:01:20;7.75;;;6.38;;
10920;SDS011;5513;50.580;8.818;2023-05-07T12:03:48;9.27;;;6.50;;
10920;SDS011;5513;50.580;8.818;2023-05-07T12:06:17;8.25;;;6.32;;
10920;SDS011;5513;50.580;8.818;2023-05-07T12:08:46;6.82;;;6.13;;
10920;SDS011;5513;50.580;8.818;2023-05-07T12:11:15;8.65;;;7.00;;
10920;SDS011;5513;50.580;8.818;2023-05-07T12:13:49;9.63;;;7.30;;
10920;SDS011;5513;50.580;8.818;2023-05-07T12:16:17;8.10;;;7.15;;
10920;SDS011;5513;50.580;8.818;2023-05-07T12:18:48;7.90;;;7.10;;
10920;SDS011;5513;50.580;8.818;2023-05-07T12:21:19;7.57;;;6.72;;
10920;SDS011;5513;50.580;8.818;2023-05-07T12:23:47;7.03;;;6.32;;
10920;SDS011;5513;50.580;8.818;2023-05-07T12:26:15;6.05;;;5.45;;
10920;SDS011;5513;50.580;8.818;2023-05-07T12:28:44;7.03;;;5.82;;
10920;SDS011;5513;50.580;8.818;2023-05-07T12:31:13;7.47;;;6.75;;
10920;SDS011;5513;50.580;8.818;2023-05-07T12:33:42;7.88;;;5.60;;
10920;SDS011;5513;50.580;8.818;2023-05-07T12:36:12;8.73;;;6.22;;
10920;SDS011;5513;50.580;8.818;2023-05-07T12:38:41;5.75;;;5.20;;
10920;SDS011;5513;50.580;8.818;2023-05-07T12:41:10;7.35;;;5.20;;
10920;SDS011;5513;50.580;8.818;2023-05-07T12:43:39;5.60;;;4.93;;
10920;SDS011;5513;50.580;8.818;2023-05-07T12:46:07;5.72;;;5.07;;
10920;SDS011;5513;50.580;8.818;2023-05-07T12:48:36;6.32;;;5.65;;
10920;SDS011;5513;50.580;8.818;2023-05-07T12:51:05;5.40;;;4.90;;
10920;SDS011;5513;50.580;8.818;2023-05-07T12:53:39;5.60;;;4.93;;
10920;SDS011;5513;50.580;8.818;2023-05-07T12:56:08;6.50;;;4.80;;
10920;SDS011;5513;50.580;8.818;2023-05-07T12:58:37;6.43;;;4.60;;
10920;SDS011;5513;50.580;8.818;2023-05-07T13:01:06;5.22;;;4.65;;
10920;SDS011;5513;50.580;8.818;2023-05-07T13:03:37;4.05;;;3.65;;
10920;SDS011;5513;50.580;8.818;2023-05-07T13:06:06;4.70;;;4.20;;
10920;SDS011;5513;50.580;8.818;2023-05-07T13:08:40;7.60;;;4.97;;
10920;SDS011;5513;50.580;8.818;2023-05-07T13:11:10;4.78;;;4.38;;
10920;SDS011;5513;50.580;8.818;2023-05-07T13:13:40;4.70;;;4.28;;
10920;SDS011;5513;50.580;8.818;2023-05-07T13:16:09;6.57;;;4.50;;
10920;SDS011;5513;50.580;8.818;2023-05-07T13:18:39;4.85;;;4.30;;
10920;SDS011;5513;50.580;8.818;2023-05-07T13:21:10;4.13;;;3.15;;
10920;SDS011;5513;50.580;8.818;2023-05-07T13:23:41;4.55;;;4.13;;
10920;SDS011;5513;50.580;8.818;2023-05-07T13:26:09;5.03;;;4.53;;
10920;SDS011;5513;50.580;8.818;2023-05-07T13:28:52;5.20;;;4.28;;
10920;SDS011;5513;50.580;8.818;2023-05-07T13:31:21;4.25;;;3.90;;
10920;SDS011;5513;50.580;8.818;2023-05-07T13:33:49;6.32;;;4.20;;
10920;SDS011;5513;50.580;8.818;2023-05-07T13:36:17;4.72;;;4.10;;
10920;SDS011;5513;50.580;8.818;2023-05-07T13:38:47;6.07;;;4.78;;
10920;SDS011;5513;50.580;8.818;2023-05-07T13:41:15;6.55;;;4.38;;
10920;SDS011;5513;50.580;8.818;2023-05-07T13:43:44;5.00;;;4.13;;
10920;SDS011;5513;50.580;8.818;2023-05-07T13:46:12;4.68;;;4.03;;
10920;SDS011;5513;50.580;8.818;2023-05-07T13:48:40;4.90;;;4.20;;
10920;SDS011;5513;50.580;8.818;2023-05-07T13:51:09;5.00;;;4.60;;
10920;SDS011;5513;50.580;8.818;2023-05-07T13:53:37;4.60;;;4.20;;
10920;SDS011;5513;50.580;8.818;2023-05-07T13:56:07;6.20;;;3.97;;
10920;SDS011;5513;50.580;8.818;2023-05-07T13:58:35;5.43;;;3.83;;
10920;SDS011;5513;50.580;8.818;2023-05-07T14:01:21;4.50;;;4.10;;
10920;SDS011;5513;50.580;8.818;2023-05-07T14:03:50;4.63;;;4.22;;
10920;SDS011;5513;50.580;8.818;2023-05-07T14:06:18;5.03;;;4.50;;
10920;SDS011;5513;50.580;8.818;2023-05-07T14:08:48;5.00;;;4.10;;
10920;SDS011;5513;50.580;8.818;2023-05-07T14:11:18;4.28;;;3.88;;
10920;SDS011;5513;50.580;8.818;2023-05-07T14:13:47;6.38;;;4.40;;
10920;SDS011;5513;50.580;8.818;2023-05-07T14:16:15;4.57;;;3.75;;
10920;SDS011;5513;50.580;8.818;2023-05-07T14:18:43;5.65;;;4.00;;
10920;SDS011;5513;50.580;8.818;2023-05-07T14:21:12;5.88;;;4.60;;
10920;SDS011;5513;50.580;8.818;2023-05-07T14:23:40;4.53;;;3.92;;
10920;SDS011;5513;50.580;8.818;2023-05-07T14:26:09;4.63;;;4.22;;
10920;SDS011;5513;50.580;8.818;2023-05-07T14:28:38;4.60;;;4.20;;
10920;SDS011;5513;50.580;8.818;2023-05-07T14:31:12;6.03;;;4.80;;
10920;SDS011;5513;50.580;8.818;2023-05-07T14:33:41;5.50;;;4.53;;
10920;SDS011;5513;50.580;8.818;2023-05-07T14:36:09;5.05;;;4.55;;
10920;SDS011;5513;50.580;8.818;2023-05-07T14:38:37;5.05;;;4.57;;
10920;SDS011;5513;50.580;8.818;2023-05-07T14:41:06;5.15;;;4.15;;
10920;SDS011;5513;50.580;8.818;2023-05-07T14:43:34;4.93;;;4.47;;
10920;SDS011;5513;50.580;8.818;2023-05-07T14:46:04;5.15;;;4.43;;
10920;SDS011;5513;50.580;8.818;2023-05-07T14:48:33;4.60;;;4.20;;
10920;SDS011;5513;50.580;8.818;2023-05-07T14:51:02;6.70;;;4.78;;
10920;SDS011;5513;50.580;8.818;2023-05-07T14:53:31;4.53;;;4.15;;
10920;SDS011;5513;50.580;8.818;2023-05-07T14:56:00;6.13;;;4.60;;
10920;SDS011;5513;50.580;8.818;2023-05-07T14:58:28;5.70;;;4.60;;
10920;SDS011;5513;50.580;8.818;2023-05-07T15:00:57;5.57;;;4.38;;
10920;SDS011;5513;50.580;8.818;2023-05-07T15:03:28;5.63;;;4.90;;
10920;SDS011;5513;50.580;8.818;2023-05-07T15:05:56;5.32;;;4.38;;
10920;SDS011;5513;50.580;8.818;2023-05-07T15:08:24;5.32;;;4.35;;
10920;SDS011;5513;50.580;8.818;2023-05-07T15:10:53;5.53;;;5.00;;
10920;SDS011;5513;50.580;8.818;2023-05-07T15:13:21;4.70;;;4.30;;
10920;SDS011;5513;50.580;8.818;2023-05-07T15:15:49;5.32;;;4.82;;